sensor_id;sensor_type;location;lat;lon;timestamp;P1;durP1;ratioP1;P2;durP2;ratioP2
2888;SDS011;1453;42.708;23.282;2023-09-18T00:00:08;28.03;;;20.53;;
2888;SDS011;1453;42.708;23.282;2023-09-18T00:02:37;27.30;;;22.17;;
2888;SDS011;1453;42.708;23.282;2023-09-18T00:05:04;26.07;;;20.63;;
2888;SDS011;1453;42.708;23.282;2023-09-18T00:07:30;31.80;;;23.53;;
2888;SDS011;1453;42.708;23.282;2023-09-18T00:09:56;27.73;;;22.47;;
2888;SDS011;1453;42.708;23.282;2023-09-18T00:12:22;31.00;;;23.33;;
2888;SDS011;1453;42.708;23.282;2023-09-18T00:14:48;34.10;;;23.33;;
2888;SDS011;1453;42.708;23.282;2023-09-18T00:17:15;29.10;;;24.17;;
2888;SDS011;1453;42.708;23.282;2023-09-18T00:19:42;27.27;;;23.50;;
2888;SDS011;1453;42.708;23.282;2023-09-18T00:22:08;23.80;;;20.33;;
2888;SDS011;1453;42.708;23.282;2023-09-18T00:24:34;32.80;;;25.00;;
2888;SDS011;1453;42.708;23.282;2023-09-18T00:27:00;41.13;;;33.23;;
2888;SDS011;1453;42.708;23.282;2023-09-18T00:29:25;36.83;;;29.00;;
2888;SDS011;1453;42.708;23.282;2023-09-18T00:31:51;30.63;;;24.90;;
2888;SDS011;1453;42.708;23.282;2023-09-18T00:34:17;29.47;;;22.90;;
2888;SDS011;1453;42.708;23.282;2023-09-18T00:36:45;30.27;;;24.30;;
2888;SDS011;1453;42.708;23.282;2023-09-18T00:39:11;32.70;;;24.63;;
2888;SDS011;1453;42.708;23.282;2023-09-18T00:41:37;31.73;;;27.07;;
2888;SDS011;1453;42.708;23.282;2023-09-18T00:44:03;28.43;;;22.70;;
2888;SDS011;1453;42.708;23.282;2023-09-18T00:46:30;32.23;;;23.43;;
2888;SDS011;1453;42.708;23.282;2023-09-18T00:48:57;32.00;;;25.83;;
2888;SDS011;1453;42.708;23.282;2023-09-18T00:51:24;30.97;;;23.50;;
2888;SDS011;1453;42.708;23.282;2023-09-18T00:53:50;29.33;;;24.87;;
2888;SDS011;1453;42.708;23.282;2023-09-18T00:56:17;34.07;;;25.20;;
2888;SDS011;1453;42.708;23.282;2023-09-18T00:58:45;36.47;;;23.17;;
2888;SDS011;1453;42.708;23.282;2023-09-18T01:01:11;29.83;;;24.50;;
2888;SDS011;1453;42.708;23.282;2023-09-18T01:03:39;29.73;;;21.93;;
2888;SDS011;1453;42.708;23.282;2023-09-18T01:06:05;27.60;;;23.60;;
2888;SDS011;1453;42.708;23.282;2023-09-18T01:08:31;41.23;;;25.37;;
2888;SDS011;1453;42.708;23.282;2023-09-18T01:11:00;28.83;;;21.63;;
2888;SDS011;1453;42.708;23.282;2023-09-18T01:13:37;27.33;;;20.00;;
2888;SDS011;1453;42.708;23.282;2023-09-18T01:16:13;28.03;;;20.37;;
2888;SDS011;1453;42.708;23.282;2023-09-18T01:18:51;23.43;;;20.40;;
2888;SDS011;1453;42.708;23.282;2023-09-18T01:21:20;23.50;;;18.43;;
2888;SDS011;1453;42.708;23.282;2023-09-18T01:23:46;26.47;;;19.23;;
2888;SDS011;1453;42.708;23.282;2023-09-18T01:26:14;25.63;;;19.27;;
2888;SDS011;1453;42.708;23.282;2023-09-18T01:28:40;23.53;;;19.40;;
2888;SDS011;1453;42.708;23.282;2023-09-18T01:31:05;22.13;;;17.90;;
2888;SDS011;1453;42.708;23.282;2023-09-18T01:33:32;23.70;;;15.93;;
2888;SDS011;1453;42.708;23.282;2023-09-18T01:36:00;28.00;;;18.40;;
2888;SDS011;1453;42.708;23.282;2023-09-18T01:38:27;22.93;;;17.50;;
2888;SDS011;1453;42.708;23.282;2023-09-18T01:40:54;22.03;;;17.70;;
2888;SDS011;1453;42.708;23.282;2023-09-18T01:43:20;22.17;;;17.80;;
2888;SDS011;1453;42.708;23.282;2023-09-18T01:45:46;20.30;;;16.90;;
2888;SDS011;1453;42.708;23.282;2023-09-18T01:48:13;22.50;;;17.47;;
2888;SDS011;1453;42.708;23.282;2023-09-18T01:50:39;21.00;;;16.43;;
2888;SDS011;1453;42.708;23.282;2023-09-18T01:53:05;23.77;;;18.70;;
2888;SDS011;1453;42.708;23.282;2023-09-18T01:55:31;22.97;;;16.33;;
2888;SDS011;1453;42.708;23.282;2023-09-18T01:57:58;20.33;;;15.90;;
2888;SDS011;1453;42.708;23.282;2023-09-18T02:00:24;22.50;;;16.40;;
2888;SDS011;1453;42.708;23.282;2023-09-18T02:02:50;22.20;;;16.53;;
2888;SDS011;1453;42.708;23.282;2023-09-18T02:05:16;22.40;;;17.20;;
2888;SDS011;1453;42.708;23.282;2023-09-18T02:07:41;20.50;;;16.20;;
2888;SDS011;1453;42.708;23.282;2023-09-18T02:10:07;24.10;;;15.50;;
2888;SDS011;1453;42.708;23.282;2023-09-18T02:12:33;22.00;;;16.70;;
2888;SDS011;1453;42.708;23.282;2023-09-18T02:14:59;22.27;;;17.83;;
2888;SDS011;1453;42.708;23.282;2023-09-18T02:17:29;22.07;;;18.40;;
2888;SDS011;1453;42.708;23.282;2023-09-18T02:19:55;22.67;;;19.03;;
2888;SDS011;1453;42.708;23.282;2023-09-18T02:22:21;24.73;;;18.80;;
2888;SDS011;1453;42.708;23.282;2023-09-18T02:24:47;24.67;;;19.43;;
2888;SDS011;1453;42.708;23.282;2023-09-18T02:27:12;21.60;;;18.87;;
2888;SDS011;1453;42.708;23.282;2023-09-18T02:29:38;25.37;;;19.07;;
2888;SDS011;1453;42.708;23.282;2023-09-18T02:32:04;23.07;;;19.10;;
2888;SDS011;1453;42.708;23.282;2023-09-18T02:34:30;26.00;;;19.30;;
2888;SDS011;1453;42.708;23.282;2023-09-18T02:36:56;26.63;;;18.83;;
2888;SDS011;1453;42.708;23.282;2023-09-18T02:39:21;23.07;;;18.03;;
2888;SDS011;1453;42.708;23.282;2023-09-18T02:41:47;25.03;;;18.20;;
2888;SDS011;1453;42.708;23.282;2023-09-18T02:44:13;22.67;;;17.43;;
2888;SDS011;1453;42.708;23.282;2023-09-18T02:46:40;23.03;;;15.80;;
2888;SDS011;1453;42.708;23.282;2023-09-18T02:49:07;22.23;;;15.97;;
2888;SDS011;1453;42.708;23.282;2023-09-18T02:51:33;19.40;;;16.80;;
2888;SDS011;1453;42.708;23.282;2023-09-18T02:53:58;24.40;;;15.40;;
2888;SDS011;1453;42.708;23.282;2023-09-18T02:56:24;17.40;;;14.87;;
2888;SDS011;1453;42.708;23.282;2023-09-18T02:58:50;18.40;;;15.53;;
2888;SDS011;1453;42.708;23.282;2023-09-18T03:01:16;19.70;;;15.60;;
2888;SDS011;1453;42.708;23.282;2023-09-18T03:03:42;18.23;;;14.13;;
2888;SDS011;1453;42.708;23.282;2023-09-18T03:06:08;18.57;;;15.63;;
2888;SDS011;1453;42.708;23.282;2023-09-18T03:08:34;18.73;;;14.37;;
2888;SDS011;1453;42.708;23.282;2023-09-18T03:11:03;17.60;;;14.03;;
2888;SDS011;1453;42.708;23.282;2023-09-18T03:13:36;20.40;;;15.00;;
2888;SDS011;1453;42.708;23.282;2023-09-18T03:16:02;16.50;;;14.80;;
2888;SDS011;1453;42.708;23.282;2023-09-18T03:18:28;21.47;;;16.67;;
2888;SDS011;1453;42.708;23.282;2023-09-18T03:20:54;19.77;;;15.60;;
2888;SDS011;1453;42.708;23.282;2023-09-18T03:23:19;18.23;;;15.97;;
2888;SDS011;1453;42.708;23.282;2023-09-18T03:25:45;20.30;;;16.60;;
2888;SDS011;1453;42.708;23.282;2023-09-18T03:28:11;20.20;;;16.00;;
2888;SDS011;1453;42.708;23.282;2023-09-18T03:30:37;17.93;;;14.80;;
2888;SDS011;1453;42.708;23.282;2023-09-18T03:33:03;20.27;;;14.93;;
2888;SDS011;1453;42.708;23.282;2023-09-18T03:35:30;23.37;;;18.10;;
2888;SDS011;1453;42.708;23.282;2023-09-18T03:37:57;23.97;;;17.10;;
2888;SDS011;1453;42.708;23.282;2023-09-18T03:40:23;20.57;;;16.60;;
2888;SDS011;1453;42.708;23.282;2023-09-18T03:42:48;23.50;;;18.10;;
2888;SDS011;1453;42.708;23.282;2023-09-18T03:45:14;25.30;;;17.20;;
2888;SDS011;1453;42.708;23.282;2023-09-18T03:47:42;24.13;;;17.10;;
2888;SDS011;1453;42.708;23.282;2023-09-18T03:50:09;26.80;;;17.53;;
2888;SDS011;1453;42.708;23.282;2023-09-18T03:52:35;24.13;;;18.30;;
2888;SDS011;1453;42.708;23.282;2023-09-18T03:55:03;21.53;;;17.87;;
2888;SDS011;1453;42.708;23.282;2023-09-18T03:57:30;25.83;;;19.63;;
2888;SDS011;1453;42.708;23.282;2023-09-18T03:59:56;25.00;;;18.63;;
2888;SDS011;1453;42.708;23.282;2023-09-18T04:02:23;26.50;;;19.73;;
2888;SDS011;1453;42.708;23.282;2023-09-18T04:04:51;24.50;;;18.80;;
2888;SDS011;1453;42.708;23.282;2023-09-18T04:07:19;27.47;;;19.40;;
2888;SDS011;1453;42.708;23.282;2023-09-18T04:09:45;28.43;;;20.80;;
2888;SDS011;1453;42.708;23.282;2023-09-18T04:12:11;37.90;;;20.20;;
2888;SDS011;1453;42.708;23.282;2023-09-18T04:14:38;25.60;;;19.43;;
2888;SDS011;1453;42.708;23.282;2023-09-18T04:17:04;31.37;;;22.73;;
2888;SDS011;1453;42.708;23.282;2023-09-18T04:50:36;29.70;;;17.97;;
2888;SDS011;1453;42.708;23.282;2023-09-18T04:53:02;29.30;;;20.67;;
2888;SDS011;1453;42.708;23.282;2023-09-18T04:55:29;26.20;;;18.93;;
2888;SDS011;1453;42.708;23.282;2023-09-18T04:57:55;25.50;;;17.93;;
2888;SDS011;1453;42.708;23.282;2023-09-18T05:00:23;27.77;;;19.13;;
2888;SDS011;1453;42.708;23.282;2023-09-18T05:02:51;26.20;;;19.23;;
2888;SDS011;1453;42.708;23.282;2023-09-18T05:05:17;28.57;;;19.67;;
2888;SDS011;1453;42.708;23.282;2023-09-18T05:07:43;22.87;;;17.60;;
2888;SDS011;1453;42.708;23.282;2023-09-18T05:10:09;28.33;;;18.37;;
2888;SDS011;1453;42.708;23.282;2023-09-18T05:12:37;27.23;;;20.03;;
2888;SDS011;1453;42.708;23.282;2023-09-18T05:15:04;25.50;;;18.50;;
2888;SDS011;1453;42.708;23.282;2023-09-18T05:17:40;28.23;;;17.87;;
2888;SDS011;1453;42.708;23.282;2023-09-18T05:20:17;22.37;;;17.57;;
2888;SDS011;1453;42.708;23.282;2023-09-18T05:22:43;26.20;;;19.37;;
2888;SDS011;1453;42.708;23.282;2023-09-18T05:25:09;30.33;;;19.57;;
2888;SDS011;1453;42.708;23.282;2023-09-18T05:27:36;31.40;;;20.00;;
2888;SDS011;1453;42.708;23.282;2023-09-18T05:30:13;24.87;;;19.27;;
2888;SDS011;1453;42.708;23.282;2023-09-18T05:32:46;25.87;;;19.10;;
2888;SDS011;1453;42.708;23.282;2023-09-18T05:35:13;25.83;;;18.33;;
2888;SDS011;1453;42.708;23.282;2023-09-18T05:37:40;23.27;;;17.53;;
2888;SDS011;1453;42.708;23.282;2023-09-18T05:40:07;24.67;;;16.63;;
2888;SDS011;1453;42.708;23.282;2023-09-18T05:42:38;23.60;;;17.03;;
2888;SDS011;1453;42.708;23.282;2023-09-18T05:45:09;27.50;;;18.70;;
2888;SDS011;1453;42.708;23.282;2023-09-18T05:47:36;24.23;;;17.40;;
2888;SDS011;1453;42.708;23.282;2023-09-18T05:50:03;28.57;;;18.90;;
2888;SDS011;1453;42.708;23.282;2023-09-18T05:52:32;22.90;;;16.43;;
2888;SDS011;1453;42.708;23.282;2023-09-18T05:55:02;23.77;;;17.87;;
2888;SDS011;1453;42.708;23.282;2023-09-18T05:57:28;21.60;;;17.80;;
2888;SDS011;1453;42.708;23.282;2023-09-18T05:59:57;22.03;;;16.97;;
2888;SDS011;1453;42.708;23.282;2023-09-18T06:02:23;24.30;;;17.57;;
2888;SDS011;1453;42.708;23.282;2023-09-18T06:04:53;22.50;;;17.90;;
2888;SDS011;1453;42.708;23.282;2023-09-18T06:07:25;23.83;;;17.93;;
2888;SDS011;1453;42.708;23.282;2023-09-18T06:09:55;25.03;;;17.40;;
2888;SDS011;1453;42.708;23.282;2023-09-18T06:12:22;25.70;;;18.47;;
2888;SDS011;1453;42.708;23.282;2023-09-18T06:14:49;25.80;;;17.63;;
2888;SDS011;1453;42.708;23.282;2023-09-18T06:17:16;25.00;;;16.83;;
2888;SDS011;1453;42.708;23.282;2023-09-18T06:19:42;27.30;;;18.50;;
2888;SDS011;1453;42.708;23.282;2023-09-18T06:22:10;21.40;;;16.43;;
2888;SDS011;1453;42.708;23.282;2023-09-18T06:24:37;23.57;;;16.70;;
2888;SDS011;1453;42.708;23.282;2023-09-18T06:27:03;21.07;;;17.17;;
2888;SDS011;1453;42.708;23.282;2023-09-18T06:29:29;24.77;;;17.80;;
2888;SDS011;1453;42.708;23.282;2023-09-18T06:31:56;25.63;;;16.87;;
2888;SDS011;1453;42.708;23.282;2023-09-18T06:34:22;22.90;;;17.73;;
2888;SDS011;1453;42.708;23.282;2023-09-18T06:36:48;23.23;;;17.93;;
2888;SDS011;1453;42.708;23.282;2023-09-18T06:39:14;25.40;;;17.83;;
2888;SDS011;1453;42.708;23.282;2023-09-18T06:41:40;23.50;;;17.57;;
2888;SDS011;1453;42.708;23.282;2023-09-18T06:44:06;21.93;;;15.53;;
2888;SDS011;1453;42.708;23.282;2023-09-18T06:46:32;16.17;;;13.60;;
2888;SDS011;1453;42.708;23.282;2023-09-18T06:48:58;19.50;;;15.50;;
2888;SDS011;1453;42.708;23.282;2023-09-18T06:51:25;18.93;;;13.93;;
2888;SDS011;1453;42.708;23.282;2023-09-18T06:53:52;18.30;;;14.47;;
2888;SDS011;1453;42.708;23.282;2023-09-18T06:56:18;21.63;;;15.93;;
2888;SDS011;1453;42.708;23.282;2023-09-18T06:58:45;17.33;;;13.27;;
2888;SDS011;1453;42.708;23.282;2023-09-18T07:01:12;17.50;;;14.67;;
2888;SDS011;1453;42.708;23.282;2023-09-18T07:03:40;21.17;;;16.80;;
2888;SDS011;1453;42.708;23.282;2023-09-18T07:06:06;17.43;;;14.60;;
2888;SDS011;1453;42.708;23.282;2023-09-18T07:08:32;18.17;;;15.60;;
2888;SDS011;1453;42.708;23.282;2023-09-18T07:10:58;15.60;;;13.40;;
2888;SDS011;1453;42.708;23.282;2023-09-18T07:13:24;17.37;;;14.47;;
2888;SDS011;1453;42.708;23.282;2023-09-18T07:15:50;19.93;;;14.57;;
2888;SDS011;1453;42.708;23.282;2023-09-18T07:18:16;18.40;;;15.43;;
2888;SDS011;1453;42.708;23.282;2023-09-18T07:20:43;22.00;;;16.37;;
2888;SDS011;1453;42.708;23.282;2023-09-18T07:23:09;19.53;;;14.83;;
2888;SDS011;1453;42.708;23.282;2023-09-18T07:25:35;18.03;;;14.90;;
2888;SDS011;1453;42.708;23.282;2023-09-18T07:28:04;19.10;;;17.03;;
2888;SDS011;1453;42.708;23.282;2023-09-18T07:30:31;24.63;;;21.60;;
2888;SDS011;1453;42.708;23.282;2023-09-18T07:32:57;26.13;;;22.47;;
2888;SDS011;1453;42.708;23.282;2023-09-18T07:35:23;23.20;;;20.80;;
2888;SDS011;1453;42.708;23.282;2023-09-18T07:37:50;18.80;;;16.47;;
2888;SDS011;1453;42.708;23.282;2023-09-18T07:40:16;20.20;;;17.00;;
2888;SDS011;1453;42.708;23.282;2023-09-18T07:42:42;19.03;;;17.07;;
2888;SDS011;1453;42.708;23.282;2023-09-18T07:45:11;18.90;;;16.90;;
2888;SDS011;1453;42.708;23.282;2023-09-18T07:47:37;17.87;;;15.97;;
2888;SDS011;1453;42.708;23.282;2023-09-18T07:50:03;19.20;;;17.20;;
2888;SDS011;1453;42.708;23.282;2023-09-18T07:52:31;17.00;;;15.13;;
2888;SDS011;1453;42.708;23.282;2023-09-18T07:54:57;17.30;;;15.60;;
2888;SDS011;1453;42.708;23.282;2023-09-18T07:57:24;19.87;;;15.27;;
2888;SDS011;1453;42.708;23.282;2023-09-18T07:59:53;17.33;;;14.00;;
2888;SDS011;1453;42.708;23.282;2023-09-18T08:02:18;20.60;;;16.03;;
2888;SDS011;1453;42.708;23.282;2023-09-18T08:04:46;17.40;;;15.20;;
2888;SDS011;1453;42.708;23.282;2023-09-18T08:07:12;18.33;;;15.73;;
2888;SDS011;1453;42.708;23.282;2023-09-18T08:09:38;17.93;;;13.80;;
2888;SDS011;1453;42.708;23.282;2023-09-18T08:12:04;16.77;;;14.93;;
2888;SDS011;1453;42.708;23.282;2023-09-18T08:14:34;15.50;;;13.93;;
2888;SDS011;1453;42.708;23.282;2023-09-18T08:17:03;19.63;;;17.53;;
2888;SDS011;1453;42.708;23.282;2023-09-18T08:19:29;18.00;;;16.13;;
2888;SDS011;1453;42.708;23.282;2023-09-18T08:21:57;17.70;;;15.90;;
2888;SDS011;1453;42.708;23.282;2023-09-18T08:24:26;17.80;;;16.00;;
2888;SDS011;1453;42.708;23.282;2023-09-18T08:26:52;16.10;;;14.00;;
2888;SDS011;1453;42.708;23.282;2023-09-18T08:29:19;23.27;;;16.53;;
2888;SDS011;1453;42.708;23.282;2023-09-18T08:31:45;18.07;;;15.90;;
2888;SDS011;1453;42.708;23.282;2023-09-18T08:34:11;18.73;;;15.47;;
2888;SDS011;1453;42.708;23.282;2023-09-18T08:36:37;15.67;;;13.40;;
2888;SDS011;1453;42.708;23.282;2023-09-18T08:39:02;17.80;;;15.90;;
2888;SDS011;1453;42.708;23.282;2023-09-18T08:41:32;17.37;;;15.57;;
2888;SDS011;1453;42.708;23.282;2023-09-18T08:44:03;15.90;;;14.43;;
2888;SDS011;1453;42.708;23.282;2023-09-18T08:46:32;16.07;;;14.53;;
2888;SDS011;1453;42.708;23.282;2023-09-18T08:48:59;13.33;;;12.00;;
2888;SDS011;1453;42.708;23.282;2023-09-18T08:51:25;17.33;;;15.63;;
2888;SDS011;1453;42.708;23.282;2023-09-18T08:53:53;15.50;;;13.90;;
2888;SDS011;1453;42.708;23.282;2023-09-18T08:56:20;15.60;;;12.30;;
2888;SDS011;1453;42.708;23.282;2023-09-18T08:58:47;15.63;;;13.73;;
2888;SDS011;1453;42.708;23.282;2023-09-18T09:01:14;18.47;;;12.70;;
2888;SDS011;1453;42.708;23.282;2023-09-18T09:03:40;17.80;;;12.10;;
2888;SDS011;1453;42.708;23.282;2023-09-18T09:06:11;14.83;;;13.10;;
2888;SDS011;1453;42.708;23.282;2023-09-18T09:08:38;23.47;;;12.50;;
2888;SDS011;1453;42.708;23.282;2023-09-18T09:11:04;14.30;;;12.80;;
2888;SDS011;1453;42.708;23.282;2023-09-18T09:13:30;15.03;;;13.53;;
2888;SDS011;1453;42.708;23.282;2023-09-18T09:15:57;17.73;;;13.70;;
2888;SDS011;1453;42.708;23.282;2023-09-18T09:18:28;15.50;;;13.40;;
2888;SDS011;1453;42.708;23.282;2023-09-18T09:20:59;17.23;;;13.00;;
2888;SDS011;1453;42.708;23.282;2023-09-18T09:23:44;15.97;;;12.67;;
2888;SDS011;1453;42.708;23.282;2023-09-18T09:26:17;14.90;;;13.37;;
2888;SDS011;1453;42.708;23.282;2023-09-18T09:28:45;16.17;;;13.83;;
2888;SDS011;1453;42.708;23.282;2023-09-18T09:31:11;16.37;;;14.03;;
2888;SDS011;1453;42.708;23.282;2023-09-18T09:33:53;11.97;;;10.53;;
2888;SDS011;1453;42.708;23.282;2023-09-18T09:36:20;13.53;;;12.00;;
2888;SDS011;1453;42.708;23.282;2023-09-18T09:38:47;12.63;;;11.43;;
2888;SDS011;1453;42.708;23.282;2023-09-18T09:41:13;15.30;;;11.73;;
2888;SDS011;1453;42.708;23.282;2023-09-18T09:43:41;15.50;;;13.33;;
2888;SDS011;1453;42.708;23.282;2023-09-18T09:46:14;14.57;;;13.07;;
2888;SDS011;1453;42.708;23.282;2023-09-18T09:48:57;13.17;;;11.50;;
2888;SDS011;1453;42.708;23.282;2023-09-18T09:51:30;13.70;;;11.50;;
2888;SDS011;1453;42.708;23.282;2023-09-18T09:53:57;16.43;;;13.03;;
2888;SDS011;1453;42.708;23.282;2023-09-18T09:59:28;14.00;;;12.17;;
2888;SDS011;1453;42.708;23.282;2023-09-18T10:01:55;14.00;;;12.70;;
2888;SDS011;1453;42.708;23.282;2023-09-18T10:04:25;15.90;;;13.70;;
2888;SDS011;1453;42.708;23.282;2023-09-18T10:06:58;12.80;;;11.53;;
2888;SDS011;1453;42.708;23.282;2023-09-18T10:09:33;13.00;;;11.47;;
2888;SDS011;1453;42.708;23.282;2023-09-18T10:12:01;13.63;;;11.93;;
2888;SDS011;1453;42.708;23.282;2023-09-18T10:14:37;13.03;;;11.77;;
2888;SDS011;1453;42.708;23.282;2023-09-18T10:17:08;13.23;;;11.90;;
2888;SDS011;1453;42.708;23.282;2023-09-18T10:20:25;11.97;;;10.77;;
2888;SDS011;1453;42.708;23.282;2023-09-18T10:22:46;11.70;;;10.60;;
2888;SDS011;1453;42.708;23.282;2023-09-18T10:25:18;13.33;;;11.13;;
2888;SDS011;1453;42.708;23.282;2023-09-18T10:27:49;14.37;;;11.13;;
2888;SDS011;1453;42.708;23.282;2023-09-18T10:30:18;14.00;;;10.90;;
2888;SDS011;1453;42.708;23.282;2023-09-18T10:32:48;14.50;;;10.83;;
2888;SDS011;1453;42.708;23.282;2023-09-18T10:35:16;11.80;;;10.53;;
2888;SDS011;1453;42.708;23.282;2023-09-18T10:37:44;11.53;;;10.33;;
2888;SDS011;1453;42.708;23.282;2023-09-18T10:40:11;11.37;;;10.17;;
2888;SDS011;1453;42.708;23.282;2023-09-18T10:42:38;10.40;;;9.33;;
2888;SDS011;1453;42.708;23.282;2023-09-18T10:45:10;10.77;;;9.63;;
2888;SDS011;1453;42.708;23.282;2023-09-18T10:47:38;9.97;;;8.97;;
2888;SDS011;1453;42.708;23.282;2023-09-18T10:50:07;12.57;;;8.93;;
2888;SDS011;1453;42.708;23.282;2023-09-18T10:52:35;11.57;;;9.57;;
2888;SDS011;1453;42.708;23.282;2023-09-18T10:55:03;11.23;;;10.03;;
2888;SDS011;1453;42.708;23.282;2023-09-18T10:57:33;12.87;;;10.63;;
2888;SDS011;1453;42.708;23.282;2023-09-18T11:00:00;11.67;;;9.73;;
2888;SDS011;1453;42.708;23.282;2023-09-18T11:02:38;11.67;;;9.63;;
2888;SDS011;1453;42.708;23.282;2023-09-18T11:05:07;10.17;;;9.17;;
2888;SDS011;1453;42.708;23.282;2023-09-18T11:07:33;11.30;;;9.00;;
2888;SDS011;1453;42.708;23.282;2023-09-18T11:09:59;11.10;;;8.10;;
2888;SDS011;1453;42.708;23.282;2023-09-18T11:12:51;9.07;;;8.17;;
2888;SDS011;1453;42.708;23.282;2023-09-18T11:15:25;9.17;;;8.27;;
2888;SDS011;1453;42.708;23.282;2023-09-18T11:17:58;10.00;;;8.93;;
2888;SDS011;1453;42.708;23.282;2023-09-18T11:20:25;10.37;;;8.20;;
2888;SDS011;1453;42.708;23.282;2023-09-18T11:25:37;9.93;;;7.93;;
2888;SDS011;1453;42.708;23.282;2023-09-18T11:28:06;10.83;;;8.73;;
2888;SDS011;1453;42.708;23.282;2023-09-18T11:30:51;9.10;;;7.70;;
2888;SDS011;1453;42.708;23.282;2023-09-18T11:33:35;13.90;;;10.53;;
2888;SDS011;1453;42.708;23.282;2023-09-18T11:36:07;10.77;;;9.70;;
2888;SDS011;1453;42.708;23.282;2023-09-18T11:38:58;8.93;;;7.70;;
2888;SDS011;1453;42.708;23.282;2023-09-18T11:41:28;11.33;;;8.10;;
2888;SDS011;1453;42.708;23.282;2023-09-18T11:46:45;11.23;;;9.07;;
2888;SDS011;1453;42.708;23.282;2023-09-18T11:49:13;9.60;;;8.30;;
2888;SDS011;1453;42.708;23.282;2023-09-18T11:51:41;9.30;;;8.40;;
2888;SDS011;1453;42.708;23.282;2023-09-18T11:54:07;13.63;;;8.60;;
2888;SDS011;1453;42.708;23.282;2023-09-18T11:56:35;10.43;;;8.60;;
2888;SDS011;1453;42.708;23.282;2023-09-18T11:59:01;10.13;;;8.43;;
2888;SDS011;1453;42.708;23.282;2023-09-18T12:01:30;9.03;;;7.87;;
2888;SDS011;1453;42.708;23.282;2023-09-18T12:04:03;12.03;;;9.13;;
2888;SDS011;1453;42.708;23.282;2023-09-18T12:06:38;12.53;;;9.10;;
2888;SDS011;1453;42.708;23.282;2023-09-18T12:09:05;12.70;;;11.40;;
2888;SDS011;1453;42.708;23.282;2023-09-18T12:11:32;9.40;;;7.03;;
2888;SDS011;1453;42.708;23.282;2023-09-18T12:14:04;9.63;;;8.63;;
2888;SDS011;1453;42.708;23.282;2023-09-18T12:16:30;13.00;;;8.13;;
2888;SDS011;1453;42.708;23.282;2023-09-18T12:19:06;12.00;;;8.17;;
2888;SDS011;1453;42.708;23.282;2023-09-18T12:21:32;8.77;;;7.97;;
2888;SDS011;1453;42.708;23.282;2023-09-18T12:24:05;9.70;;;8.10;;
2888;SDS011;1453;42.708;23.282;2023-09-18T12:26:48;10.67;;;7.70;;
2888;SDS011;1453;42.708;23.282;2023-09-18T12:29:15;11.67;;;7.07;;
2888;SDS011;1453;42.708;23.282;2023-09-18T12:31:42;8.33;;;7.43;;
2888;SDS011;1453;42.708;23.282;2023-09-18T12:34:17;8.80;;;7.57;;
2888;SDS011;1453;42.708;23.282;2023-09-18T12:36:44;10.63;;;8.47;;
2888;SDS011;1453;42.708;23.282;2023-09-18T12:39:14;8.53;;;7.53;;
2888;SDS011;1453;42.708;23.282;2023-09-18T12:41:44;8.70;;;7.40;;
2888;SDS011;1453;42.708;23.282;2023-09-18T12:44:11;10.90;;;9.80;;
2888;SDS011;1453;42.708;23.282;2023-09-18T12:46:37;10.10;;;7.40;;
2888;SDS011;1453;42.708;23.282;2023-09-18T13:21:11;8.57;;;7.70;;
2888;SDS011;1453;42.708;23.282;2023-09-18T13:23:38;10.23;;;7.70;;
2888;SDS011;1453;42.708;23.282;2023-09-18T13:26:05;8.50;;;7.70;;
2888;SDS011;1453;42.708;23.282;2023-09-18T13:28:38;8.90;;;8.00;;
2888;SDS011;1453;42.708;23.282;2023-09-18T13:31:05;9.60;;;8.70;;
2888;SDS011;1453;42.708;23.282;2023-09-18T13:33:32;11.50;;;9.20;;
2888;SDS011;1453;42.708;23.282;2023-09-18T13:36:03;9.80;;;8.80;;
2888;SDS011;1453;42.708;23.282;2023-09-18T13:38:29;9.23;;;8.33;;
2888;SDS011;1453;42.708;23.282;2023-09-18T13:40:55;13.63;;;9.10;;
2888;SDS011;1453;42.708;23.282;2023-09-18T13:43:21;10.80;;;9.70;;
2888;SDS011;1453;42.708;23.282;2023-09-18T13:45:48;11.03;;;8.20;;
2888;SDS011;1453;42.708;23.282;2023-09-18T13:48:16;7.80;;;7.00;;
2888;SDS011;1453;42.708;23.282;2023-09-18T13:50:43;11.43;;;7.37;;
2888;SDS011;1453;42.708;23.282;2023-09-18T13:53:10;10.43;;;8.07;;
2888;SDS011;1453;42.708;23.282;2023-09-18T13:55:36;9.47;;;7.93;;
2888;SDS011;1453;42.708;23.282;2023-09-18T13:58:02;8.77;;;7.90;;
2888;SDS011;1453;42.708;23.282;2023-09-18T14:00:28;8.83;;;7.57;;
2888;SDS011;1453;42.708;23.282;2023-09-18T14:02:54;8.27;;;7.47;;
2888;SDS011;1453;42.708;23.282;2023-09-18T14:05:20;8.63;;;7.73;;
2888;SDS011;1453;42.708;23.282;2023-09-18T14:07:46;9.70;;;7.47;;
2888;SDS011;1453;42.708;23.282;2023-09-18T14:10:12;9.70;;;6.80;;
2888;SDS011;1453;42.708;23.282;2023-09-18T14:12:39;7.97;;;7.17;;
2888;SDS011;1453;42.708;23.282;2023-09-18T14:15:07;8.80;;;7.90;;
2888;SDS011;1453;42.708;23.282;2023-09-18T14:17:35;8.77;;;7.03;;
2888;SDS011;1453;42.708;23.282;2023-09-18T14:20:03;8.73;;;7.63;;
2888;SDS011;1453;42.708;23.282;2023-09-18T14:22:32;8.57;;;7.30;;
2888;SDS011;1453;42.708;23.282;2023-09-18T14:25:01;9.10;;;7.37;;
2888;SDS011;1453;42.708;23.282;2023-09-18T14:27:30;9.40;;;7.30;;
2888;SDS011;1453;42.708;23.282;2023-09-18T14:29:59;8.87;;;7.37;;
2888;SDS011;1453;42.708;23.282;2023-09-18T14:32:30;11.30;;;7.63;;
2888;SDS011;1453;42.708;23.282;2023-09-18T14:34:57;9.07;;;7.57;;
2888;SDS011;1453;42.708;23.282;2023-09-18T14:37:26;13.30;;;8.70;;
2888;SDS011;1453;42.708;23.282;2023-09-18T14:39:52;10.03;;;8.07;;
2888;SDS011;1453;42.708;23.282;2023-09-18T14:42:18;16.13;;;12.03;;
2888;SDS011;1453;42.708;23.282;2023-09-18T14:44:43;10.20;;;9.00;;
2888;SDS011;1453;42.708;23.282;2023-09-18T14:47:18;8.87;;;8.00;;
2888;SDS011;1453;42.708;23.282;2023-09-18T14:49:44;9.17;;;8.27;;
2888;SDS011;1453;42.708;23.282;2023-09-18T14:52:11;12.80;;;8.43;;
2888;SDS011;1453;42.708;23.282;2023-09-18T14:54:40;9.70;;;7.80;;
2888;SDS011;1453;42.708;23.282;2023-09-18T14:57:06;10.90;;;7.73;;
2888;SDS011;1453;42.708;23.282;2023-09-18T14:59:31;11.00;;;7.70;;
2888;SDS011;1453;42.708;23.282;2023-09-18T15:01:57;8.50;;;7.60;;
2888;SDS011;1453;42.708;23.282;2023-09-18T15:04:23;9.93;;;7.60;;
2888;SDS011;1453;42.708;23.282;2023-09-18T15:06:49;9.43;;;7.10;;
2888;SDS011;1453;42.708;23.282;2023-09-18T15:09:15;10.37;;;7.80;;
2888;SDS011;1453;42.708;23.282;2023-09-18T15:11:42;9.03;;;7.50;;
2888;SDS011;1453;42.708;23.282;2023-09-18T15:14:08;10.70;;;8.33;;
2888;SDS011;1453;42.708;23.282;2023-09-18T15:16:34;11.37;;;7.33;;
2888;SDS011;1453;42.708;23.282;2023-09-18T15:19:00;9.53;;;7.87;;
2888;SDS011;1453;42.708;23.282;2023-09-18T15:21:29;9.30;;;7.87;;
2888;SDS011;1453;42.708;23.282;2023-09-18T15:23:55;9.90;;;8.40;;
2888;SDS011;1453;42.708;23.282;2023-09-18T15:26:22;9.00;;;7.00;;
2888;SDS011;1453;42.708;23.282;2023-09-18T15:28:48;8.90;;;7.13;;
2888;SDS011;1453;42.708;23.282;2023-09-18T15:31:14;10.30;;;7.93;;
2888;SDS011;1453;42.708;23.282;2023-09-18T15:33:40;8.20;;;7.20;;
2888;SDS011;1453;42.708;23.282;2023-09-18T15:36:06;10.43;;;7.63;;
2888;SDS011;1453;42.708;23.282;2023-09-18T15:38:32;8.47;;;7.57;;
2888;SDS011;1453;42.708;23.282;2023-09-18T15:40:58;8.80;;;7.70;;
2888;SDS011;1453;42.708;23.282;2023-09-18T15:43:27;10.90;;;7.40;;
2888;SDS011;1453;42.708;23.282;2023-09-18T15:45:55;12.57;;;7.80;;
2888;SDS011;1453;42.708;23.282;2023-09-18T15:48:22;12.73;;;8.17;;
2888;SDS011;1453;42.708;23.282;2023-09-18T15:50:49;9.07;;;8.17;;
2888;SDS011;1453;42.708;23.282;2023-09-18T15:53:15;10.73;;;8.03;;
2888;SDS011;1453;42.708;23.282;2023-09-18T15:55:41;9.00;;;7.80;;